createdAt,value
2022-10-29T00:00:46.922Z,17.59
2022-10-29T00:03:16.133Z,17.62
2022-10-29T00:05:44.041Z,17.62
2022-10-29T00:08:11.911Z,17.66
2022-10-29T00:10:39.776Z,17.62
2022-10-29T00:13:11.228Z,17.56
2022-10-29T00:15:42.111Z,17.49
2022-10-29T00:18:09.982Z,17.41
2022-10-29T00:20:39.214Z,17.20
2022-10-29T00:23:07.077Z,17.31
2022-10-29T00:25:35.031Z,17.31
2022-10-29T00:28:02.892Z,17.20
2022-10-29T00:30:31.037Z,17.20
2022-10-29T00:32:59.025Z,17.21
2022-10-29T00:35:27.192Z,17.14
2022-10-29T00:37:56.937Z,17.16
2022-10-29T00:40:25.090Z,17.14
2022-10-29T00:42:52.946Z,17.13
2022-10-29T00:45:21.991Z,17.14
2022-10-29T00:47:54.256Z,17.10
2022-10-29T00:50:25.600Z,17.05
2022-10-29T00:52:56.030Z,17.14
2022-10-29T00:55:24.059Z,17.17
2022-10-29T00:57:55.784Z,17.25
2022-10-29T01:00:24.330Z,17.27
2022-10-29T01:02:52.329Z,17.28
2022-10-29T01:05:24.947Z,17.25
2022-10-29T01:07:52.792Z,17.28
2022-10-29T01:10:30.865Z,17.32
2022-10-29T01:15:54.397Z,17.35
2022-10-29T01:18:27.115Z,17.26
2022-10-29T01:21:23.102Z,17.24
2022-10-29T01:24:24.327Z,17.22
2022-10-29T01:27:40.840Z,17.22
2022-10-29T01:30:17.455Z,16.95
2022-10-29T01:32:57.906Z,16.92
2022-10-29T01:35:33.032Z,16.83
2022-10-29T01:38:12.385Z,16.82
2022-10-29T01:40:50.901Z,16.92
2022-10-29T01:43:24.370Z,16.98
2022-10-29T01:45:55.605Z,17.01
2022-10-29T01:48:32.248Z,16.87
2022-10-29T01:51:05.830Z,16.89
2022-10-29T01:53:37.240Z,16.88
2022-10-29T01:56:05.238Z,16.78
2022-10-29T01:58:35.131Z,16.89
2022-10-29T02:01:10.318Z,16.98
2022-10-29T02:03:52.825Z,17.05
2022-10-29T02:06:32.801Z,17.08
2022-10-29T02:09:10.138Z,17.09
2022-10-29T02:11:48.017Z,17.08
2022-10-29T02:14:21.770Z,17.08
2022-10-29T02:16:50.409Z,17.05
2022-10-29T02:19:20.032Z,16.93
2022-10-29T02:21:48.046Z,17.00
2022-10-29T02:24:15.924Z,16.93
2022-10-29T02:26:43.728Z,16.97
2022-10-29T02:29:11.772Z,16.90
2022-10-29T02:31:39.988Z,16.94
2022-10-29T02:34:07.816Z,16.97
2022-10-29T02:36:37.075Z,16.96
2022-10-29T02:39:05.231Z,16.99
2022-10-29T02:41:33.219Z,16.81
2022-10-29T02:44:01.079Z,16.86
2022-10-29T02:46:30.239Z,16.78
2022-10-29T02:48:58.341Z,16.75
2022-10-29T02:51:26.229Z,16.84
2022-10-29T02:53:55.998Z,16.77
2022-10-29T02:56:24.173Z,16.80
2022-10-29T02:58:52.011Z,16.85
2022-10-29T03:01:20.013Z,16.89
2022-10-29T03:03:48.080Z,16.88
2022-10-29T03:06:16.873Z,16.90
2022-10-29T03:08:45.071Z,16.88
2022-10-29T03:11:14.771Z,16.80
2022-10-29T03:13:42.721Z,16.82
2022-10-29T03:16:11.028Z,16.83
2022-10-29T03:18:38.994Z,16.71
2022-10-29T03:21:06.939Z,16.72
2022-10-29T03:23:34.778Z,16.65
2022-10-29T03:26:03.208Z,16.54
2022-10-29T03:28:33.258Z,16.56
2022-10-29T03:31:01.172Z,16.59
2022-10-29T03:33:29.118Z,16.64
2022-10-29T03:35:58.669Z,16.57
2022-10-29T03:38:26.839Z,16.46
2022-10-29T03:40:55.406Z,16.39
2022-10-29T03:43:23.316Z,16.38
2022-10-29T03:45:53.237Z,16.30
2022-10-29T03:48:21.339Z,16.28
2022-10-29T03:50:55.421Z,16.17
2022-10-29T03:53:23.623Z,16.18
2022-10-29T03:55:52.430Z,16.00
2022-10-29T03:58:21.059Z,16.10
2022-10-29T04:00:56.542Z,16.13
2022-10-29T04:03:24.947Z,16.06
2022-10-29T04:05:52.837Z,16.11
2022-10-29T04:08:20.749Z,16.20
2022-10-29T04:10:50.116Z,16.18
2022-10-29T04:13:18.948Z,16.23
2022-10-29T04:15:47.435Z,16.17
2022-10-29T04:18:16.620Z,16.09
2022-10-29T04:22:26.953Z,15.95
2022-10-29T04:29:08.609Z,16.20
2022-10-29T04:31:37.729Z,16.15
2022-10-29T04:34:07.034Z,16.06
2022-10-29T04:36:34.904Z,16.00
2022-10-29T04:39:02.923Z,16.05
2022-10-29T04:41:30.872Z,15.88
2022-10-29T04:43:58.878Z,15.90
2022-10-29T04:46:26.747Z,15.74
2022-10-29T04:48:54.680Z,15.56
2022-10-29T04:51:25.373Z,15.79
2022-10-29T04:53:53.207Z,15.85
2022-10-29T04:56:21.115Z,15.85
2022-10-29T04:58:52.506Z,15.91
2022-10-29T05:01:20.813Z,15.93
2022-10-29T05:03:48.846Z,15.90
2022-10-29T05:06:16.749Z,15.98
2022-10-29T05:08:45.955Z,15.87
2022-10-29T05:11:13.830Z,15.81
2022-10-29T05:13:41.984Z,15.77
2022-10-29T05:16:09.862Z,15.71
2022-10-29T05:18:38.579Z,15.68
2022-10-29T05:21:06.862Z,15.80
2022-10-29T05:23:34.754Z,15.89
2022-10-29T05:26:04.127Z,15.77
2022-10-29T05:28:32.007Z,15.67
2022-10-29T05:31:02.582Z,15.69
2022-10-29T05:33:30.589Z,15.64
2022-10-29T05:36:00.712Z,15.61
2022-10-29T05:38:28.690Z,15.59
2022-10-29T05:40:58.938Z,15.57
2022-10-29T05:43:28.808Z,15.56
2022-10-29T05:45:56.687Z,15.51
2022-10-29T05:48:24.579Z,15.28
2022-10-29T05:50:52.421Z,15.23
2022-10-29T05:53:20.237Z,15.20
2022-10-29T05:55:48.211Z,15.24
2022-10-29T05:58:16.093Z,15.18
2022-10-29T06:00:46.427Z,15.34
2022-10-29T06:03:16.435Z,15.10
2022-10-29T06:05:45.112Z,15.05
2022-10-29T06:08:12.930Z,15.25
2022-10-29T06:10:40.810Z,15.32
2022-10-29T06:13:12.201Z,15.43
2022-10-29T06:15:40.176Z,15.29
2022-10-29T06:18:10.124Z,15.45
2022-10-29T06:20:39.173Z,15.56
2022-10-29T06:23:07.633Z,15.68
2022-10-29T06:25:35.561Z,15.60
2022-10-29T06:28:05.179Z,15.67
2022-10-29T06:30:35.498Z,15.76
2022-10-29T06:33:04.597Z,15.86
2022-10-29T06:38:07.801Z,15.82
2022-10-29T06:40:40.313Z,15.89
2022-10-29T06:43:10.387Z,15.93
2022-10-29T06:45:38.386Z,16.04
2022-10-29T06:48:07.037Z,16.01
2022-10-29T06:50:36.521Z,15.97
2022-10-29T06:53:06.507Z,15.91
2022-10-29T06:55:35.081Z,15.91
2022-10-29T06:58:04.978Z,15.94
2022-10-29T07:00:34.621Z,15.96
2022-10-29T07:03:03.382Z,15.94
2022-10-29T07:05:32.284Z,15.91
2022-10-29T07:08:02.875Z,15.91
2022-10-29T07:10:32.989Z,15.95
2022-10-29T07:13:01.497Z,15.78
2022-10-29T07:15:30.898Z,15.80
2022-10-29T07:18:00.232Z,15.84
2022-10-29T07:20:29.150Z,15.88
2022-10-29T07:22:58.277Z,15.92
2022-10-29T07:25:27.948Z,15.95
2022-10-29T07:27:56.399Z,15.97
2022-10-29T07:30:24.604Z,16.02
2022-10-29T07:32:52.738Z,15.96
2022-10-29T07:35:20.671Z,15.98
2022-10-29T07:37:48.530Z,16.10
2022-10-29T07:40:16.722Z,16.21
2022-10-29T07:42:45.996Z,16.27
2022-10-29T07:45:13.985Z,16.37
2022-10-29T07:47:42.907Z,16.43
2022-10-29T07:50:11.599Z,16.43
2022-10-29T07:52:40.685Z,16.52
2022-10-29T07:55:10.058Z,16.45
2022-10-29T07:57:38.379Z,16.49
2022-10-29T08:00:09.214Z,16.51
2022-10-29T08:02:40.080Z,16.55
2022-10-29T08:05:08.891Z,16.60
2022-10-29T08:07:36.815Z,16.68
2022-10-29T08:10:05.072Z,16.65
2022-10-29T08:12:33.075Z,16.67
2022-10-29T08:15:00.899Z,16.68
2022-10-29T08:17:31.642Z,16.73
2022-10-29T08:19:59.715Z,16.57
2022-10-29T08:22:27.639Z,16.75
2022-10-29T08:24:55.582Z,16.78
2022-10-29T08:27:23.476Z,16.85
2022-10-29T08:29:51.345Z,16.90
2022-10-29T08:32:19.235Z,16.93
2022-10-29T08:34:48.477Z,16.75
2022-10-29T08:37:16.648Z,16.84
2022-10-29T08:39:44.713Z,16.85
2022-10-29T08:42:31.774Z,16.87
2022-10-29T08:45:19.770Z,16.83
2022-10-29T08:48:04.475Z,16.66
2022-10-29T08:50:41.097Z,16.74
2022-10-29T08:53:23.319Z,16.69
2022-10-29T08:55:52.776Z,16.69
2022-10-29T08:58:29.364Z,16.62
2022-10-29T09:00:59.165Z,16.81
2022-10-29T09:03:29.603Z,16.78
2022-10-29T09:06:09.303Z,16.84
2022-10-29T09:08:47.294Z,16.96
2022-10-29T09:11:32.460Z,16.98
2022-10-29T09:14:12.284Z,16.81
2022-10-29T09:16:50.108Z,16.97
2022-10-29T09:19:38.346Z,17.02
2022-10-29T09:22:17.268Z,17.06
2022-10-29T09:24:55.988Z,16.97
2022-10-29T09:27:31.131Z,17.04
2022-10-29T09:30:07.638Z,17.15
2022-10-29T09:33:01.786Z,17.28
2022-10-29T09:35:37.311Z,17.43
2022-10-29T09:38:13.929Z,17.36
2022-10-29T09:40:43.911Z,17.37
2022-10-29T09:43:25.327Z,17.38
2022-10-29T09:46:01.871Z,17.42
2022-10-29T09:48:37.109Z,17.46
2022-10-29T09:51:16.777Z,17.31
2022-10-29T09:53:46.184Z,17.46
2022-10-29T09:56:14.187Z,17.46
2022-10-29T09:58:46.185Z,17.40
2022-10-29T10:01:15.085Z,17.43
2022-10-29T10:08:08.823Z,17.47
2022-10-29T10:10:51.964Z,17.41
2022-10-29T10:13:26.094Z,17.47
2022-10-29T10:15:57.457Z,17.42
2022-10-29T10:18:27.432Z,17.44
2022-10-29T10:21:07.815Z,17.54
2022-10-29T10:23:47.710Z,17.55
2022-10-29T10:26:31.794Z,17.55
2022-10-29T10:29:10.885Z,17.60
2022-10-29T10:31:39.089Z,17.66
2022-10-29T10:34:16.150Z,17.65
2022-10-29T10:36:47.500Z,17.69
2022-10-29T10:39:26.222Z,17.74
2022-10-29T10:41:57.321Z,17.59
2022-10-29T10:44:25.679Z,17.68
2022-10-29T10:46:56.148Z,17.68
2022-10-29T10:49:32.990Z,17.79
2022-10-29T10:52:04.650Z,17.87
2022-10-29T10:54:37.592Z,17.75
2022-10-29T10:57:21.628Z,17.90
2022-10-29T10:59:57.933Z,17.91
2022-10-29T11:02:35.255Z,17.94
2022-10-29T11:05:18.953Z,18.08
2022-10-29T11:07:53.995Z,18.04
2022-10-29T11:10:28.615Z,17.89
2022-10-29T11:13:01.646Z,17.88
2022-10-29T11:15:37.324Z,17.99
2022-10-29T11:18:14.499Z,17.99
2022-10-29T11:20:48.635Z,18.10
2022-10-29T11:23:28.735Z,18.23
2022-10-29T11:26:04.529Z,18.25
2022-10-29T11:28:39.903Z,18.30
2022-10-29T11:31:17.477Z,18.28
2022-10-29T11:33:53.985Z,18.42
2022-10-29T11:36:24.397Z,18.42
2022-10-29T11:39:00.278Z,18.53
2022-10-29T11:41:38.817Z,18.57
2022-10-29T11:44:12.987Z,18.60
2022-10-29T11:46:58.030Z,18.70
2022-10-29T11:49:40.727Z,18.78
2022-10-29T11:52:12.478Z,18.71
2022-10-29T11:54:49.939Z,18.70
2022-10-29T11:57:24.089Z,18.77
2022-10-29T12:00:05.928Z,18.85
2022-10-29T12:03:15.835Z,18.98
2022-10-29T12:05:49.892Z,18.92
2022-10-29T12:08:32.566Z,18.99
2022-10-29T12:11:08.148Z,19.00
2022-10-29T12:13:48.763Z,19.02
2022-10-29T12:16:30.875Z,19.09
2022-10-29T12:19:07.402Z,19.16
2022-10-29T12:21:47.697Z,19.13
2022-10-29T12:24:30.222Z,19.20
2022-10-29T12:27:05.863Z,19.25
2022-10-29T12:29:44.260Z,19.28
2022-10-29T12:32:21.608Z,19.28
2022-10-29T12:34:56.222Z,19.32
2022-10-29T12:37:35.991Z,19.33
2022-10-29T12:40:15.121Z,19.39
2022-10-29T12:42:43.603Z,19.38
2022-10-29T12:45:28.639Z,19.44
2022-10-29T12:48:04.553Z,19.48
2022-10-29T12:50:45.281Z,19.52
2022-10-29T12:53:26.934Z,19.62
2022-10-29T12:55:56.106Z,19.68
2022-10-29T12:58:48.789Z,19.80
2022-10-29T13:04:35.364Z,19.78
2022-10-29T13:07:05.618Z,19.79
2022-10-29T13:09:35.850Z,19.77
2022-10-29T13:12:06.530Z,19.78
2022-10-29T13:14:39.400Z,19.79
2022-10-29T13:17:24.216Z,19.81
2022-10-29T13:19:57.409Z,19.81
2022-10-29T13:22:50.591Z,19.81
2022-10-29T13:25:52.426Z,19.89
2022-10-29T13:28:49.861Z,19.91
2022-10-29T13:31:47.541Z,19.96
2022-10-29T13:34:48.818Z,19.97
2022-10-29T13:38:02.849Z,19.99
2022-10-29T13:41:10.429Z,20.02
2022-10-29T13:43:39.766Z,19.97
2022-10-29T13:46:47.383Z,20.01
2022-10-29T13:49:22.906Z,19.98
2022-10-29T13:51:58.547Z,20.08
2022-10-29T13:54:39.611Z,20.27
2022-10-29T13:57:18.958Z,20.34
2022-10-29T13:59:51.847Z,20.39
2022-10-29T14:02:27.298Z,20.41
2022-10-29T14:05:00.490Z,20.40
2022-10-29T14:07:36.536Z,20.53
2022-10-29T14:10:14.687Z,20.55
2022-10-29T14:12:43.672Z,20.46
2022-10-29T14:15:14.864Z,20.43
2022-10-29T14:17:43.324Z,20.50
2022-10-29T14:20:24.531Z,20.39
2022-10-29T14:22:53.603Z,20.38
2022-10-29T14:25:34.519Z,20.22
2022-10-29T14:28:27.252Z,20.30
2022-10-29T14:31:04.373Z,20.27
2022-10-29T14:33:34.806Z,20.26
2022-10-29T14:36:13.097Z,20.30
2022-10-29T14:38:44.244Z,20.30
2022-10-29T14:41:15.700Z,20.33
2022-10-29T14:43:45.028Z,20.32
2022-10-29T14:46:21.893Z,20.31
2022-10-29T14:48:58.479Z,20.30
2022-10-29T14:51:27.978Z,20.29
2022-10-29T14:54:00.922Z,20.25
2022-10-29T14:56:35.294Z,20.27
2022-10-29T14:59:10.457Z,20.28
2022-10-29T15:01:47.812Z,20.31
2022-10-29T15:04:26.078Z,20.34
2022-10-29T15:06:56.766Z,20.30
2022-10-29T15:09:28.460Z,20.32
2022-10-29T15:12:03.495Z,20.38
2022-10-29T15:14:38.029Z,20.32
2022-10-29T15:17:12.145Z,20.35
2022-10-29T15:19:45.747Z,20.34
2022-10-29T15:22:20.607Z,20.31
2022-10-29T15:24:52.088Z,20.31
2022-10-29T15:27:24.349Z,20.26
2022-10-29T15:29:54.666Z,20.22
2022-10-29T15:32:25.126Z,20.21
2022-10-29T15:34:57.723Z,20.22
2022-10-29T15:37:40.744Z,20.19
2022-10-29T15:40:13.501Z,20.16
2022-10-29T15:42:43.150Z,20.11
2022-10-29T15:45:31.939Z,20.16
2022-10-29T15:48:30.684Z,20.13
2022-10-29T15:50:58.656Z,20.05
2022-10-29T15:53:26.582Z,20.09
2022-10-29T15:55:54.938Z,20.03
2022-10-29T15:58:24.753Z,19.97
2022-10-29T16:00:52.788Z,19.98
2022-10-29T16:03:22.800Z,19.93
2022-10-29T16:05:54.719Z,19.93
2022-10-29T16:08:27.702Z,19.92
2022-10-29T16:10:56.427Z,19.89
2022-10-29T16:13:27.952Z,19.87
2022-10-29T16:15:56.244Z,19.84
2022-10-29T16:18:25.515Z,19.87
2022-10-29T16:20:57.883Z,19.84
2022-10-29T16:23:26.085Z,19.82
2022-10-29T16:25:54.152Z,19.82
2022-10-29T16:28:22.083Z,19.81
2022-10-29T16:30:55.109Z,19.81
2022-10-29T16:33:23.116Z,19.82
2022-10-29T16:35:51.040Z,19.78
2022-10-29T16:38:21.152Z,19.78
2022-10-29T16:40:49.104Z,19.79
2022-10-29T16:43:16.939Z,19.79
2022-10-29T16:45:45.033Z,19.81
2022-10-29T16:48:14.484Z,19.76
2022-10-29T16:50:42.515Z,19.75
2022-10-29T16:53:11.307Z,19.76
2022-10-29T16:55:40.513Z,19.76
2022-10-29T16:58:10.567Z,19.74
2022-10-29T17:00:38.700Z,19.72
2022-10-29T17:03:11.481Z,19.72
2022-10-29T17:05:41.981Z,19.88
2022-10-29T17:08:10.132Z,19.72
2022-10-29T17:10:38.355Z,19.70
2022-10-29T17:13:09.024Z,19.68
2022-10-29T17:15:40.195Z,19.65
2022-10-29T17:18:08.094Z,19.67
2022-10-29T17:20:36.025Z,19.66
2022-10-29T17:23:05.396Z,19.60
2022-10-29T17:25:33.356Z,19.57
2022-10-29T17:28:01.218Z,19.57
2022-10-29T17:30:29.102Z,19.54
2022-10-29T17:32:57.132Z,19.54
2022-10-29T17:35:25.823Z,19.56
2022-10-29T17:37:54.668Z,19.50
2022-10-29T17:40:24.330Z,19.45
2022-10-29T17:42:52.221Z,19.36
2022-10-29T17:45:23.272Z,19.39
2022-10-29T17:47:56.380Z,19.39
2022-10-29T17:50:26.288Z,19.41
2022-10-29T17:52:54.482Z,19.44
2022-10-29T17:55:23.959Z,19.42
2022-10-29T17:57:51.883Z,19.48
2022-10-29T18:00:20.187Z,19.39
2022-10-29T18:02:50.771Z,19.41
2022-10-29T18:05:19.480Z,19.42
2022-10-29T18:07:47.524Z,19.40
2022-10-29T18:10:16.764Z,19.46
2022-10-29T18:12:45.959Z,19.30
2022-10-29T18:15:13.905Z,19.38
2022-10-29T18:17:41.898Z,19.35
2022-10-29T18:20:10.980Z,19.28
2022-10-29T18:22:38.974Z,19.29
2022-10-29T18:25:07.338Z,19.31
2022-10-29T18:27:35.368Z,19.30
2022-10-29T18:30:05.301Z,19.27
2022-10-29T18:32:33.344Z,19.30
2022-10-29T18:35:01.260Z,19.28
2022-10-29T18:37:29.224Z,19.30
2022-10-29T18:39:59.002Z,19.23
2022-10-29T18:42:29.906Z,19.29
2022-10-29T18:44:57.919Z,19.33
2022-10-29T18:47:27.460Z,19.27
2022-10-29T18:49:56.200Z,19.32
2022-10-29T18:52:24.062Z,19.26
2022-10-29T18:54:52.043Z,19.28
2022-10-29T18:57:19.984Z,19.30
2022-10-29T18:59:49.173Z,19.26
2022-10-29T19:02:17.258Z,19.30
2022-10-29T19:04:46.946Z,19.28
2022-10-29T19:07:14.840Z,19.24
2022-10-29T19:09:42.766Z,19.25
2022-10-29T19:12:12.836Z,19.25
2022-10-29T19:14:40.756Z,19.22
2022-10-29T19:17:08.726Z,19.27
2022-10-29T19:19:36.782Z,19.25
2022-10-29T19:22:06.071Z,19.19
2022-10-29T19:24:34.057Z,19.19
2022-10-29T19:27:01.985Z,19.18
2022-10-29T19:29:30.030Z,19.22
2022-10-29T19:31:58.152Z,19.22
2022-10-29T19:34:26.170Z,19.17
2022-10-29T19:36:54.088Z,19.18
2022-10-29T19:39:23.396Z,19.18
2022-10-29T19:41:51.382Z,19.17
2022-10-29T19:44:19.331Z,19.14
2022-10-29T19:46:47.466Z,19.14
2022-10-29T19:49:15.478Z,19.16
2022-10-29T19:51:44.891Z,19.16
2022-10-29T19:54:13.077Z,19.18
2022-10-29T19:56:42.612Z,19.17
2022-10-29T19:59:10.918Z,19.19
2022-10-29T20:01:41.653Z,19.18
2022-10-29T20:04:09.835Z,19.19
2022-10-29T20:06:37.687Z,19.18
2022-10-29T20:09:05.789Z,19.14
2022-10-29T20:11:33.978Z,19.10
2022-10-29T20:14:03.369Z,19.12
2022-10-29T20:16:31.346Z,19.06
2022-10-29T20:18:59.428Z,19.04
2022-10-29T20:21:27.458Z,19.04
2022-10-29T20:23:55.894Z,19.01
2022-10-29T20:26:23.921Z,19.00
2022-10-29T20:28:51.779Z,18.98
2022-10-29T20:31:32.292Z,19.00
2022-10-29T20:34:02.916Z,18.95
2022-10-29T20:36:33.033Z,18.90
2022-10-29T20:39:01.154Z,18.87
2022-10-29T20:41:29.955Z,18.90
2022-10-29T20:43:59.090Z,18.86
2022-10-29T20:46:28.336Z,18.82
2022-10-29T20:48:57.768Z,18.85
2022-10-29T20:51:26.032Z,18.81
2022-10-29T20:53:54.289Z,18.80
2022-10-29T20:56:23.688Z,18.77
2022-10-29T20:58:51.775Z,18.77
2022-10-29T21:01:21.804Z,18.74
2022-10-29T21:03:50.955Z,18.77
2022-10-29T21:06:20.543Z,18.74
2022-10-29T21:08:49.504Z,18.72
2022-10-29T21:11:18.446Z,18.68
2022-10-29T21:13:46.707Z,18.70
2022-10-29T21:16:17.375Z,18.67
2022-10-29T21:18:46.684Z,18.65
2022-10-29T21:21:15.128Z,18.61
2022-10-29T21:23:44.685Z,18.63
2022-10-29T21:26:15.814Z,18.65
2022-10-29T21:28:44.285Z,18.66
2022-10-29T21:31:12.527Z,18.65
2022-10-29T21:33:40.419Z,18.70
2022-10-29T21:36:08.973Z,18.68
2022-10-29T21:38:36.838Z,18.69
2022-10-29T21:41:06.303Z,18.54
2022-10-29T21:43:34.947Z,18.49
2022-10-29T21:46:03.011Z,18.40
2022-10-29T21:48:31.088Z,18.48
2022-10-29T21:51:04.390Z,18.50
2022-10-29T21:53:32.714Z,18.52
2022-10-29T21:56:02.660Z,18.54
2022-10-29T21:58:32.422Z,18.59
2022-10-29T22:01:05.308Z,18.51
2022-10-29T22:03:33.975Z,18.49
2022-10-29T22:06:03.172Z,18.34
2022-10-29T22:08:31.046Z,18.48
2022-10-29T22:10:59.335Z,18.48
2022-10-29T22:13:28.174Z,18.53
2022-10-29T22:15:57.815Z,18.52
2022-10-29T22:18:26.754Z,18.48
2022-10-29T22:21:04.464Z,18.52
2022-10-29T22:23:32.314Z,18.44
2022-10-29T22:26:00.255Z,18.53
2022-10-29T22:28:28.390Z,18.53
2022-10-29T22:31:02.469Z,18.57
2022-10-29T22:33:31.536Z,18.51
2022-10-29T22:36:05.419Z,18.47
2022-10-29T22:38:33.393Z,18.47
2022-10-29T22:41:05.576Z,18.46
2022-10-29T22:43:33.451Z,18.35
2022-10-29T22:46:03.190Z,18.48
2022-10-29T22:48:31.168Z,18.53
2022-10-29T22:51:03.855Z,18.53
2022-10-29T22:53:32.135Z,18.49
2022-10-29T22:56:00.563Z,18.50
2022-10-29T22:58:28.540Z,18.48
2022-10-29T23:01:05.661Z,18.49
2022-10-29T23:03:33.881Z,18.44
2022-10-29T23:06:03.486Z,18.25
2022-10-29T23:08:32.236Z,18.34
2022-10-29T23:11:00.385Z,18.34
2022-10-29T23:13:28.299Z,18.42
2022-10-29T23:15:56.206Z,18.44
2022-10-29T23:18:25.565Z,18.42
2022-10-29T23:20:59.265Z,18.44
2022-10-29T23:23:27.393Z,18.41
2022-10-29T23:26:00.445Z,18.37
2022-10-29T23:28:28.939Z,18.31
2022-10-29T23:30:57.529Z,18.29
2022-10-29T23:33:26.810Z,18.30
2022-10-29T23:35:54.861Z,18.25
2022-10-29T23:38:22.887Z,18.28
2022-10-29T23:40:50.735Z,18.30
2022-10-29T23:43:18.697Z,18.36
2022-10-29T23:45:46.677Z,18.29
2022-10-29T23:48:14.544Z,18.33
2022-10-29T23:50:43.763Z,18.29
2022-10-29T23:53:11.950Z,18.23
2022-10-29T23:55:39.865Z,18.25
2022-10-29T23:58:07.698Z,18.20
